createdAt,value
2018-11-06T00:00:15.559Z,97.64
2018-11-06T00:03:03.826Z,97.89
2018-11-06T00:05:46.843Z,97.79
2018-11-06T00:08:29.793Z,97.82
2018-11-06T00:11:13.452Z,97.66
2018-11-06T00:13:56.158Z,97.76
2018-11-06T00:16:39.542Z,98.15
2018-11-06T00:19:22.396Z,97.73
2018-11-06T00:22:05.034Z,97.81
2018-11-06T00:24:48.703Z,97.96
2018-11-06T00:27:32.012Z,98.29
2018-11-06T00:30:14.748Z,98.51
2018-11-06T00:32:58.660Z,98.39
2018-11-06T00:35:41.991Z,98.26
2018-11-06T00:38:24.791Z,98.55
2018-11-06T00:41:08.941Z,98.50
2018-11-06T00:43:52.503Z,98.47
2018-11-06T00:46:36.621Z,99.06
2018-11-06T00:49:19.419Z,98.98
2018-11-06T00:52:01.556Z,98.74
2018-11-06T00:54:45.511Z,98.80
2018-11-06T00:57:27.788Z,98.62
2018-11-06T01:00:15.143Z,99.28
2018-11-06T01:02:57.725Z,99.40
2018-11-06T01:05:41.695Z,98.83
2018-11-06T01:08:24.176Z,99.13
2018-11-06T01:11:07.197Z,99.36
2018-11-06T01:13:50.312Z,99.39
2018-11-06T01:16:33.242Z,99.94
2018-11-06T01:19:16.607Z,99.65
2018-11-06T01:22:01.208Z,99.48
2018-11-06T01:24:43.568Z,99.41
2018-11-06T01:27:26.524Z,99.22
2018-11-06T01:30:18.867Z,98.95
2018-11-06T01:33:01.243Z,99.67
2018-11-06T01:35:44.141Z,99.56
2018-11-06T01:38:27.108Z,98.89
2018-11-06T01:41:09.540Z,98.80
2018-11-06T01:43:53.199Z,99.25
2018-11-06T01:46:35.716Z,98.63
2018-11-06T01:49:18.457Z,98.75
2018-11-06T01:52:01.471Z,99.12
2018-11-06T01:54:44.974Z,98.11
2018-11-06T01:57:27.352Z,98.71
2018-11-06T02:00:13.909Z,98.61
2018-11-06T02:02:57.025Z,98.72
2018-11-06T02:05:39.021Z,99.26
2018-11-06T02:08:22.571Z,99.37
2018-11-06T02:11:05.434Z,99.42
2018-11-06T02:13:48.096Z,99.46
2018-11-06T02:16:31.425Z,100.00
2018-11-06T02:19:14.607Z,100.00
2018-11-06T02:21:57.757Z,99.35
2018-11-06T02:24:40.452Z,99.26
2018-11-06T02:27:23.668Z,99.41
2018-11-06T02:30:07.578Z,100.00
2018-11-06T02:32:49.891Z,99.93
2018-11-06T02:35:32.578Z,99.28
2018-11-06T02:38:15.603Z,99.90
2018-11-06T02:40:58.726Z,99.30
2018-11-06T02:43:41.446Z,98.23
2018-11-06T02:46:24.751Z,97.56
2018-11-06T02:49:08.267Z,97.36
2018-11-06T02:51:51.579Z,97.34
2018-11-06T02:54:34.620Z,97.99
2018-11-06T02:57:17.663Z,98.54
2018-11-06T03:00:01.158Z,98.66
2018-11-06T03:02:44.763Z,98.41
2018-11-06T03:05:27.642Z,98.48
2018-11-06T03:08:10.136Z,98.84
2018-11-06T03:10:53.395Z,98.56
2018-11-06T03:13:36.064Z,98.55
2018-11-06T03:16:18.574Z,98.60
2018-11-06T03:19:02.073Z,99.02
2018-11-06T03:21:45.264Z,99.09
2018-11-06T03:24:27.658Z,99.22
2018-11-06T03:27:11.030Z,99.61
2018-11-06T03:29:54.007Z,99.48
2018-11-06T03:32:36.634Z,99.17
2018-11-06T03:35:20.921Z,98.92
2018-11-06T03:38:03.704Z,98.90
2018-11-06T03:40:46.008Z,99.66
2018-11-06T03:43:29.119Z,99.20
2018-11-06T03:46:12.148Z,99.83
2018-11-06T03:48:55.588Z,100.00
2018-11-06T03:51:38.950Z,98.90
2018-11-06T03:54:21.971Z,99.34
2018-11-06T03:57:04.677Z,98.42
2018-11-06T03:59:47.504Z,98.92
2018-11-06T04:02:31.415Z,99.07
2018-11-06T04:05:14.569Z,99.42
2018-11-06T04:07:58.535Z,99.02
2018-11-06T04:10:41.537Z,98.74
2018-11-06T04:13:23.578Z,99.50
2018-11-06T04:16:06.504Z,98.97
2018-11-06T04:18:49.971Z,99.57
2018-11-06T04:21:40.976Z,99.06
2018-11-06T04:24:23.696Z,98.96
2018-11-06T04:27:06.783Z,98.98
2018-11-06T04:29:49.891Z,99.07
2018-11-06T04:32:32.260Z,98.56
2018-11-06T04:35:15.046Z,98.59
2018-11-06T04:37:59.007Z,98.89
2018-11-06T04:40:41.290Z,98.35
2018-11-06T04:43:24.408Z,98.04
2018-11-06T04:46:07.523Z,98.30
2018-11-06T04:48:50.801Z,98.00
2018-11-06T04:51:33.930Z,97.92
2018-11-06T04:54:17.772Z,97.20
2018-11-06T04:57:00.947Z,96.95
2018-11-06T04:59:43.903Z,97.14
2018-11-06T05:02:26.261Z,96.85
2018-11-06T05:05:09.328Z,96.68
2018-11-06T05:07:52.307Z,96.79
2018-11-06T05:10:34.853Z,96.30
2018-11-06T05:13:18.083Z,96.02
2018-11-06T05:16:01.219Z,95.84
2018-11-06T05:18:43.735Z,95.61
2018-11-06T05:21:27.353Z,95.37
2018-11-06T05:24:09.966Z,95.96
2018-11-06T05:26:52.710Z,95.60
2018-11-06T05:29:35.676Z,95.53
2018-11-06T05:32:18.825Z,95.48
2018-11-06T05:35:01.733Z,95.44
2018-11-06T05:37:45.300Z,95.44
2018-11-06T05:40:38.765Z,95.56
2018-11-06T05:43:21.574Z,95.06
2018-11-06T05:46:04.699Z,95.18
2018-11-06T05:48:47.894Z,94.66
2018-11-06T05:51:31.056Z,94.34
2018-11-06T05:54:14.041Z,94.52
2018-11-06T05:56:57.797Z,94.47
2018-11-06T05:59:40.988Z,94.82
2018-11-06T06:02:24.420Z,94.59
2018-11-06T06:05:08.172Z,94.77
2018-11-06T06:07:50.265Z,94.72
2018-11-06T06:10:33.751Z,94.67
2018-11-06T06:13:16.532Z,94.62
2018-11-06T06:15:59.585Z,94.34
2018-11-06T06:18:42.150Z,94.25
2018-11-06T06:21:25.199Z,93.58
2018-11-06T06:24:08.188Z,92.68
2018-11-06T06:26:51.980Z,92.71
2018-11-06T06:29:34.236Z,93.10
2018-11-06T06:32:17.255Z,92.48
2018-11-06T06:35:00.144Z,92.65
2018-11-06T06:37:43.211Z,92.41
2018-11-06T06:40:27.054Z,92.10
2018-11-06T06:43:10.772Z,92.78
2018-11-06T06:45:53.923Z,93.04
2018-11-06T06:48:38.435Z,93.18
2018-11-06T06:51:20.851Z,93.92
2018-11-06T06:54:04.286Z,93.53
2018-11-06T06:56:47.129Z,93.34
2018-11-06T06:59:30.975Z,92.90
2018-11-06T07:02:14.435Z,93.48
2018-11-06T07:04:56.711Z,93.20
2018-11-06T07:07:40.879Z,92.80
2018-11-06T07:10:25.304Z,92.09
2018-11-06T07:13:08.128Z,92.11
2018-11-06T07:15:50.619Z,92.22
2018-11-06T07:18:33.640Z,91.84
2018-11-06T07:21:17.006Z,91.71
2018-11-06T07:23:59.839Z,91.81
2018-11-06T07:26:41.802Z,91.04
2018-11-06T07:29:27.521Z,90.22
2018-11-06T07:32:10.624Z,90.07
2018-11-06T07:34:53.314Z,89.67
2018-11-06T07:37:36.380Z,87.85
2018-11-06T07:40:20.072Z,88.24
2018-11-06T07:43:02.697Z,88.13
2018-11-06T07:45:46.451Z,87.86
2018-11-06T07:48:28.730Z,88.33
2018-11-06T07:51:12.131Z,87.70
2018-11-06T07:53:54.843Z,88.06
2018-11-06T07:56:37.950Z,87.61
2018-11-06T07:59:21.651Z,87.56
2018-11-06T08:02:05.860Z,87.64
2018-11-06T08:04:48.107Z,87.89
2018-11-06T08:07:31.524Z,87.14
2018-11-06T08:10:15.239Z,87.24
2018-11-06T08:12:57.946Z,86.11
2018-11-06T08:15:43.817Z,86.16
2018-11-06T08:18:28.275Z,86.77
2018-11-06T08:21:10.803Z,86.59
2018-11-06T08:23:54.331Z,86.89
2018-11-06T08:26:37.779Z,85.96
2018-11-06T08:29:20.346Z,85.64
2018-11-06T08:32:03.905Z,85.33
2018-11-06T08:34:49.143Z,84.04
2018-11-06T08:37:33.390Z,84.71
2018-11-06T08:40:17.859Z,84.79
2018-11-06T08:43:01.276Z,84.70
2018-11-06T08:45:44.399Z,84.51
2018-11-06T08:48:27.030Z,84.66
2018-11-06T08:51:09.620Z,84.47
2018-11-06T08:53:52.024Z,84.85
2018-11-06T08:56:36.175Z,83.43
2018-11-06T08:59:19.771Z,83.02
2018-11-06T09:02:03.621Z,83.04
2018-11-06T09:04:46.527Z,82.35
2018-11-06T09:07:28.847Z,82.89
2018-11-06T09:10:12.703Z,81.97
2018-11-06T09:12:56.387Z,81.43
2018-11-06T09:15:40.595Z,79.13
2018-11-06T09:18:22.859Z,79.98
2018-11-06T09:21:06.331Z,81.38
2018-11-06T09:23:48.935Z,81.66
2018-11-06T09:26:31.694Z,82.07
2018-11-06T09:29:14.864Z,82.48
2018-11-06T09:31:57.658Z,82.83
2018-11-06T09:34:40.536Z,82.78
2018-11-06T09:37:24.137Z,80.29
2018-11-06T09:40:08.032Z,77.77
2018-11-06T09:42:50.879Z,75.31
2018-11-06T09:45:33.385Z,73.96
2018-11-06T09:48:17.359Z,74.32
2018-11-06T09:51:00.289Z,73.08
2018-11-06T09:53:43.194Z,72.92
2018-11-06T09:56:26.040Z,73.32
2018-11-06T09:59:08.634Z,73.29
2018-11-06T10:01:52.563Z,72.43
2018-11-06T10:04:36.122Z,70.64
2018-11-06T10:07:19.660Z,70.73
2018-11-06T10:10:03.117Z,70.82
2018-11-06T10:12:48.064Z,70.99
2018-11-06T10:15:31.019Z,73.48
2018-11-06T10:18:13.658Z,74.63
2018-11-06T10:20:57.540Z,73.88
2018-11-06T10:23:40.152Z,68.54
2018-11-06T10:26:23.790Z,67.32
2018-11-06T10:29:07.548Z,68.58
2018-11-06T10:31:50.523Z,67.94
2018-11-06T10:34:34.291Z,68.14
2018-11-06T10:37:17.330Z,68.46
2018-11-06T10:40:01.378Z,66.09
2018-11-06T10:42:45.217Z,66.41
2018-11-06T10:45:30.185Z,67.07
2018-11-06T10:48:14.616Z,65.17
2018-11-06T10:50:56.867Z,65.99
2018-11-06T10:53:40.863Z,66.28
2018-11-06T10:56:23.791Z,66.14
2018-11-06T10:59:07.108Z,66.56
2018-11-06T11:01:55.088Z,66.29
2018-11-06T11:04:38.252Z,67.67
2018-11-06T11:07:20.551Z,67.51
2018-11-06T11:10:05.659Z,67.85
2018-11-06T11:12:48.194Z,68.18
2018-11-06T11:15:31.088Z,68.29
2018-11-06T11:18:14.417Z,67.83
2018-11-06T11:20:56.712Z,68.35
2018-11-06T11:23:40.620Z,68.50
2018-11-06T11:26:24.815Z,68.69
2018-11-06T11:29:09.911Z,66.84
2018-11-06T11:31:54.734Z,67.47
2018-11-06T11:34:38.656Z,67.86
2018-11-06T11:37:22.140Z,67.27
2018-11-06T11:40:05.673Z,66.56
2018-11-06T11:42:48.762Z,66.44
2018-11-06T11:45:32.235Z,66.59
2018-11-06T11:48:14.812Z,66.48
2018-11-06T11:50:57.967Z,67.45
2018-11-06T11:53:40.521Z,66.21
2018-11-06T11:56:23.993Z,67.32
2018-11-06T11:59:06.299Z,66.79
2018-11-06T12:01:49.007Z,67.25
2018-11-06T12:04:31.606Z,67.02
2018-11-06T12:07:15.307Z,67.66
2018-11-06T12:09:58.848Z,67.82
2018-11-06T12:12:41.659Z,68.71
2018-11-06T12:15:25.749Z,68.88
2018-11-06T12:18:08.724Z,68.89
2018-11-06T12:20:54.184Z,68.27
2018-11-06T12:23:37.055Z,69.11
2018-11-06T12:26:20.025Z,68.54
2018-11-06T12:29:04.812Z,68.53
2018-11-06T12:31:47.111Z,68.86
2018-11-06T12:34:35.026Z,68.24
2018-11-06T12:37:18.846Z,67.38
2018-11-06T12:40:02.175Z,68.00
2018-11-06T12:42:46.347Z,67.29
2018-11-06T12:45:30.155Z,67.54
2018-11-06T12:48:14.495Z,67.54
2018-11-06T12:50:57.759Z,66.89
2018-11-06T12:53:40.996Z,67.37
2018-11-06T12:56:24.030Z,67.20
2018-11-06T12:59:07.724Z,67.16
2018-11-06T13:01:52.095Z,66.31
2018-11-06T13:04:35.352Z,66.05
2018-11-06T13:07:18.452Z,65.93
2018-11-06T13:10:01.287Z,66.12
2018-11-06T13:12:43.994Z,67.02
2018-11-06T13:15:26.830Z,66.72
2018-11-06T13:18:10.284Z,66.08
2018-11-06T13:20:55.672Z,66.27
2018-11-06T13:23:37.939Z,66.68
2018-11-06T13:26:20.868Z,66.48
2018-11-06T13:29:03.030Z,65.03
2018-11-06T13:31:45.388Z,65.90
2018-11-06T13:34:29.327Z,64.35
2018-11-06T13:37:13.392Z,64.86
2018-11-06T13:39:57.831Z,63.90
2018-11-06T13:42:42.070Z,64.96
2018-11-06T13:45:25.724Z,64.46
2018-11-06T13:48:08.364Z,63.41
2018-11-06T13:50:52.458Z,63.46
2018-11-06T13:53:35.728Z,61.75
2018-11-06T13:56:19.904Z,61.89
2018-11-06T13:59:02.708Z,63.31
2018-11-06T14:01:46.143Z,62.02
2018-11-06T14:04:29.104Z,62.05
2018-11-06T14:07:23.937Z,62.31
2018-11-06T14:10:20.271Z,62.66
2018-11-06T14:13:03.796Z,62.98
2018-11-06T14:15:47.564Z,62.62
2018-11-06T14:18:30.471Z,63.27
2018-11-06T14:21:12.906Z,62.91
2018-11-06T14:23:55.827Z,63.41
2018-11-06T14:26:39.308Z,63.12
2018-11-06T14:29:23.713Z,63.68
2018-11-06T14:32:08.360Z,64.02
2018-11-06T14:34:54.162Z,64.88
2018-11-06T14:37:37.021Z,64.44
2018-11-06T14:40:20.306Z,64.99
2018-11-06T14:43:04.969Z,64.70
2018-11-06T14:45:47.672Z,65.15
2018-11-06T14:48:31.154Z,64.14
2018-11-06T14:51:13.816Z,65.91
2018-11-06T14:53:56.129Z,65.37
2018-11-06T14:56:38.915Z,65.53
2018-11-06T14:59:23.138Z,66.42
2018-11-06T15:02:08.685Z,66.37
2018-11-06T15:04:51.790Z,66.06
2018-11-06T15:07:37.409Z,66.47
2018-11-06T15:10:20.501Z,66.72
2018-11-06T15:13:03.862Z,66.66
2018-11-06T15:15:46.194Z,67.03
2018-11-06T15:18:28.741Z,67.02
2018-11-06T15:21:11.229Z,67.58
2018-11-06T15:24:06.955Z,67.17
2018-11-06T15:26:49.979Z,68.07
2018-11-06T15:29:34.743Z,68.13
2018-11-06T15:32:17.539Z,68.14
2018-11-06T15:35:00.021Z,68.69
2018-11-06T15:37:43.704Z,68.94
2018-11-06T15:43:47.026Z,70.05
2018-11-06T15:46:29.763Z,69.66
2018-11-06T15:49:14.923Z,69.94
2018-11-06T15:51:59.500Z,70.19
2018-11-06T15:54:42.658Z,70.14
2018-11-06T15:57:26.087Z,70.33
2018-11-06T16:00:16.367Z,70.90
2018-11-06T16:03:00.105Z,70.99
2018-11-06T16:05:43.209Z,70.97
2018-11-06T16:08:26.153Z,70.92
2018-11-06T16:11:09.352Z,70.83
2018-11-06T16:13:54.140Z,71.01
2018-11-06T16:16:37.448Z,71.53
2018-11-06T16:19:22.432Z,71.29
2018-11-06T16:22:15.061Z,70.62
2018-11-06T16:25:12.915Z,71.32
2018-11-06T16:27:57.112Z,71.50
2018-11-06T16:31:02.016Z,71.73
2018-11-06T16:33:45.823Z,71.54
2018-11-06T16:36:28.677Z,71.22
2018-11-06T16:39:19.392Z,72.02
2018-11-06T16:42:03.004Z,72.78
2018-11-06T16:44:45.715Z,73.15
2018-11-06T16:47:29.326Z,72.61
2018-11-06T16:50:14.950Z,73.71
2018-11-06T16:52:58.277Z,73.54
2018-11-06T16:55:41.407Z,74.19
2018-11-06T16:58:24.709Z,74.10
2018-11-06T17:01:07.399Z,74.31
2018-11-06T17:03:53.065Z,74.69
2018-11-06T17:06:42.694Z,74.77
2018-11-06T17:09:26.327Z,75.00
2018-11-06T17:12:12.220Z,75.10
2018-11-06T17:14:55.967Z,75.58
2018-11-06T17:17:39.871Z,75.96
2018-11-06T17:20:24.567Z,75.61
2018-11-06T17:23:17.050Z,75.44
2018-11-06T17:26:01.516Z,75.83
2018-11-06T17:28:45.115Z,76.03
2018-11-06T17:31:28.856Z,75.92
2018-11-06T17:34:12.991Z,76.51
2018-11-06T17:36:56.088Z,76.43
2018-11-06T17:39:40.753Z,76.22
2018-11-06T17:42:24.254Z,76.17
2018-11-06T17:45:09.496Z,76.41
2018-11-06T17:47:51.883Z,76.28
2018-11-06T17:50:36.093Z,76.41
2018-11-06T17:53:19.198Z,77.00
2018-11-06T17:56:02.653Z,77.22
2018-11-06T17:58:44.772Z,77.53
2018-11-06T18:01:28.271Z,77.48
2018-11-06T18:04:13.415Z,77.34
2018-11-06T18:06:56.415Z,77.88
2018-11-06T18:09:39.044Z,77.75
2018-11-06T18:12:22.708Z,78.26
2018-11-06T18:15:06.069Z,77.59
2018-11-06T18:17:48.964Z,77.86
2018-11-06T18:20:34.438Z,77.67
2018-11-06T18:23:18.597Z,77.31
2018-11-06T18:26:04.004Z,77.74
2018-11-06T18:28:46.943Z,78.15
2018-11-06T18:31:38.204Z,77.65
2018-11-06T18:34:21.409Z,77.89
2018-11-06T18:37:05.591Z,78.37
2018-11-06T18:39:49.254Z,78.67
2018-11-06T18:42:31.992Z,79.09
2018-11-06T18:45:16.003Z,79.02
2018-11-06T18:47:58.945Z,78.80
2018-11-06T18:50:43.807Z,78.67
2018-11-06T18:53:27.203Z,79.09
2018-11-06T18:56:10.630Z,79.84
2018-11-06T18:58:54.017Z,80.11
2018-11-06T19:01:37.107Z,80.78
2018-11-06T19:04:23.584Z,81.15
2018-11-06T19:07:07.971Z,81.39
2018-11-06T19:09:51.417Z,81.23
2018-11-06T19:12:36.681Z,81.01
2018-11-06T19:15:21.069Z,81.31
2018-11-06T19:18:06.170Z,81.26
2018-11-06T19:20:51.453Z,80.56
2018-11-06T19:23:36.314Z,81.17
2018-11-06T19:26:21.501Z,81.53
2018-11-06T19:29:06.812Z,80.78
2018-11-06T19:31:50.552Z,80.63
2018-11-06T19:34:35.316Z,80.08
2018-11-06T19:37:19.955Z,79.81
2018-11-06T19:40:04.666Z,79.17
2018-11-06T19:42:50.665Z,79.36
2018-11-06T19:45:35.437Z,79.33
2018-11-06T19:48:21.549Z,79.57
2018-11-06T19:51:05.444Z,79.85
2018-11-06T19:53:49.817Z,80.99
2018-11-06T19:56:35.647Z,80.70
2018-11-06T19:59:19.743Z,79.06
2018-11-06T20:02:05.615Z,77.24
2018-11-06T20:04:51.661Z,77.50
2018-11-06T20:07:37.070Z,76.88
2018-11-06T20:10:23.303Z,76.47
2018-11-06T20:13:09.590Z,76.36
2018-11-06T20:15:54.098Z,76.46
2018-11-06T20:18:37.880Z,76.75
2018-11-06T20:21:23.357Z,76.51
2018-11-06T20:24:06.908Z,75.85
2018-11-06T20:26:50.588Z,76.62
2018-11-06T20:29:34.728Z,76.77
2018-11-06T20:32:18.371Z,78.11
2018-11-06T20:35:03.338Z,77.82
2018-11-06T20:37:47.746Z,78.25
2018-11-06T20:40:32.421Z,77.76
2018-11-06T20:43:16.589Z,78.49
2018-11-06T20:46:01.290Z,78.87
2018-11-06T20:48:44.907Z,80.92
2018-11-06T20:51:30.432Z,81.27
2018-11-06T20:54:14.179Z,81.31
2018-11-06T20:56:58.847Z,82.53
2018-11-06T20:59:41.692Z,81.52
2018-11-06T21:02:26.040Z,81.53
2018-11-06T21:05:10.443Z,80.90
2018-11-06T21:07:54.824Z,81.46
2018-11-06T21:10:39.191Z,81.54
2018-11-06T21:13:23.709Z,81.62
2018-11-06T21:16:07.465Z,80.45
2018-11-06T21:18:52.338Z,83.33
2018-11-06T21:21:36.457Z,84.56
2018-11-06T21:24:20.507Z,84.01
2018-11-06T21:27:04.431Z,84.42
2018-11-06T21:29:48.561Z,84.24
2018-11-06T21:32:32.800Z,84.68
2018-11-06T21:35:17.377Z,84.90
2018-11-06T21:38:01.312Z,83.07
2018-11-06T21:40:45.766Z,83.31
2018-11-06T21:43:29.128Z,85.72
2018-11-06T21:46:11.862Z,86.07
2018-11-06T21:48:55.432Z,86.31
2018-11-06T21:51:38.901Z,86.18
2018-11-06T21:54:22.226Z,87.76
2018-11-06T21:57:06.456Z,87.46
2018-11-06T21:59:49.717Z,87.07
2018-11-06T22:02:32.935Z,86.25
2018-11-06T22:05:18.184Z,85.83
2018-11-06T22:08:02.673Z,87.25
2018-11-06T22:10:51.437Z,86.14
2018-11-06T22:13:34.364Z,83.12
2018-11-06T22:16:17.263Z,82.16
2018-11-06T22:18:59.341Z,81.64
2018-11-06T22:21:42.090Z,81.20
2018-11-06T22:24:25.536Z,80.20
2018-11-06T22:27:08.534Z,80.63
2018-11-06T22:29:50.737Z,80.43
2018-11-06T22:32:33.624Z,80.85
2018-11-06T22:35:16.747Z,81.80
2018-11-06T22:37:59.538Z,80.34
2018-11-06T22:40:43.687Z,80.45
2018-11-06T22:43:28.632Z,79.92
2018-11-06T22:46:12.512Z,78.74
2018-11-06T22:48:55.852Z,78.47
2018-11-06T22:51:38.080Z,78.17
2018-11-06T22:54:21.106Z,77.77
2018-11-06T22:57:08.772Z,77.08
2018-11-06T22:59:52.899Z,75.24
2018-11-06T23:02:35.502Z,75.29
2018-11-06T23:05:18.506Z,76.16
2018-11-06T23:08:06.604Z,76.20
2018-11-06T23:10:48.978Z,77.06
2018-11-06T23:13:33.120Z,76.68
2018-11-06T23:16:16.597Z,76.79
2018-11-06T23:18:59.234Z,77.31
2018-11-06T23:21:42.243Z,77.35
2018-11-06T23:24:25.105Z,76.86
2018-11-06T23:27:08.387Z,76.92
2018-11-06T23:29:51.063Z,77.50
2018-11-06T23:32:34.681Z,78.14
2018-11-06T23:35:17.499Z,78.62
2018-11-06T23:38:00.319Z,77.69
2018-11-06T23:44:20.396Z,78.99
2018-11-06T23:47:02.842Z,79.13
2018-11-06T23:49:45.212Z,80.07
2018-11-06T23:52:27.453Z,79.77
2018-11-06T23:55:09.799Z,79.30
2018-11-06T23:57:52.021Z,79.58
